sensor_id;sensor_type;location;lat;lon;timestamp;temperature;humidity
50548;DHT22;38013;48.810;8.818;2023-03-01T00:01:17;0.60;58.30
50548;DHT22;38013;48.810;8.818;2023-03-01T00:03:45;0.60;58.20
50548;DHT22;38013;48.810;8.818;2023-03-01T00:06:12;0.50;58.20
50548;DHT22;38013;48.810;8.818;2023-03-01T00:08:39;0.60;58.30
50548;DHT22;38013;48.810;8.818;2023-03-01T00:11:13;0.50;58.40
50548;DHT22;38013;48.810;8.818;2023-03-01T00:13:41;0.50;58.40
50548;DHT22;38013;48.810;8.818;2023-03-01T00:16:15;0.50;58.40
50548;DHT22;38013;48.810;8.818;2023-03-01T00:18:44;0.50;58.50
50548;DHT22;38013;48.810;8.818;2023-03-01T00:21:10;0.50;58.50
50548;DHT22;38013;48.810;8.818;2023-03-01T00:23:37;0.50;58.50
50548;DHT22;38013;48.810;8.818;2023-03-01T00:26:05;0.50;58.60
50548;DHT22;38013;48.810;8.818;2023-03-01T00:28:33;0.50;58.60
50548;DHT22;38013;48.810;8.818;2023-03-01T00:31:04;0.40;58.60
50548;DHT22;38013;48.810;8.818;2023-03-01T00:33:32;0.40;58.60
50548;DHT22;38013;48.810;8.818;2023-03-01T00:35:59;0.40;58.60
50548;DHT22;38013;48.810;8.818;2023-03-01T00:38:26;0.40;58.70
50548;DHT22;38013;48.810;8.818;2023-03-01T00:40:52;0.40;58.70
50548;DHT22;38013;48.810;8.818;2023-03-01T00:43:20;0.40;58.60
50548;DHT22;38013;48.810;8.818;2023-03-01T00:45:47;0.40;58.50
50548;DHT22;38013;48.810;8.818;2023-03-01T00:48:14;0.40;58.70
50548;DHT22;38013;48.810;8.818;2023-03-01T00:50:41;0.40;58.80
50548;DHT22;38013;48.810;8.818;2023-03-01T00:53:07;0.30;58.60
50548;DHT22;38013;48.810;8.818;2023-03-01T00:55:35;0.30;58.80
50548;DHT22;38013;48.810;8.818;2023-03-01T00:58:02;0.30;58.70
50548;DHT22;38013;48.810;8.818;2023-03-01T01:00:32;0.30;59.00
50548;DHT22;38013;48.810;8.818;2023-03-01T01:02:58;0.20;59.00
50548;DHT22;38013;48.810;8.818;2023-03-01T01:05:25;0.20;59.20
50548;DHT22;38013;48.810;8.818;2023-03-01T01:07:52;0.20;59.30
50548;DHT22;38013;48.810;8.818;2023-03-01T01:10:19;0.20;59.20
50548;DHT22;38013;48.810;8.818;2023-03-01T01:12:46;0.20;59.20
50548;DHT22;38013;48.810;8.818;2023-03-01T01:15:13;0.20;59.30
50548;DHT22;38013;48.810;8.818;2023-03-01T01:17:42;0.20;59.40
50548;DHT22;38013;48.810;8.818;2023-03-01T01:20:10;0.10;59.30
50548;DHT22;38013;48.810;8.818;2023-03-01T01:22:37;0.10;59.30
50548;DHT22;38013;48.810;8.818;2023-03-01T01:25:04;0.10;59.40
50548;DHT22;38013;48.810;8.818;2023-03-01T01:27:31;0.00;59.20
50548;DHT22;38013;48.810;8.818;2023-03-01T01:29:58;0.00;59.10
50548;DHT22;38013;48.810;8.818;2023-03-01T01:32:24;0.00;59.20
50548;DHT22;38013;48.810;8.818;2023-03-01T01:34:52;0.00;59.20
50548;DHT22;38013;48.810;8.818;2023-03-01T01:37:19;-0.10;59.00
50548;DHT22;38013;48.810;8.818;2023-03-01T01:39:46;-0.10;59.20
50548;DHT22;38013;48.810;8.818;2023-03-01T01:42:15;-0.10;59.20
50548;DHT22;38013;48.810;8.818;2023-03-01T01:44:44;-0.10;59.30
50548;DHT22;38013;48.810;8.818;2023-03-01T01:47:14;-0.10;59.80
50548;DHT22;38013;48.810;8.818;2023-03-01T01:49:44;-0.20;59.50
50548;DHT22;38013;48.810;8.818;2023-03-01T01:54:44;-0.20;59.50
50548;DHT22;38013;48.810;8.818;2023-03-01T01:57:47;-0.10;59.60
50548;DHT22;38013;48.810;8.818;2023-03-01T02:00:22;-0.10;59.40
50548;DHT22;38013;48.810;8.818;2023-03-01T02:03:33;-0.20;59.30
50548;DHT22;38013;48.810;8.818;2023-03-01T02:05:46;-0.20;59.40
50548;DHT22;38013;48.810;8.818;2023-03-01T02:08:21;-0.20;59.40
50548;DHT22;38013;48.810;8.818;2023-03-01T02:10:50;-0.20;59.40
50548;DHT22;38013;48.810;8.818;2023-03-01T02:13:19;-0.20;59.70
50548;DHT22;38013;48.810;8.818;2023-03-01T02:15:46;-0.30;59.70
50548;DHT22;38013;48.810;8.818;2023-03-01T02:18:17;-0.30;59.80
50548;DHT22;38013;48.810;8.818;2023-03-01T02:23:17;-0.30;59.50
50548;DHT22;38013;48.810;8.818;2023-03-01T02:28:37;-0.30;59.90
50548;DHT22;38013;48.810;8.818;2023-03-01T02:31:05;-0.30;59.90
50548;DHT22;38013;48.810;8.818;2023-03-01T02:33:52;-0.30;59.80
50548;DHT22;38013;48.810;8.818;2023-03-01T02:36:20;-0.30;59.70
50548;DHT22;38013;48.810;8.818;2023-03-01T02:38:49;-0.30;59.80
50548;DHT22;38013;48.810;8.818;2023-03-01T02:41:19;-0.30;59.70
50548;DHT22;38013;48.810;8.818;2023-03-01T02:43:46;-0.40;59.70
50548;DHT22;38013;48.810;8.818;2023-03-01T02:46:21;-0.40;59.90
50548;DHT22;38013;48.810;8.818;2023-03-01T02:48:51;-0.40;60.10
50548;DHT22;38013;48.810;8.818;2023-03-01T02:54:42;-0.40;60.10
50548;DHT22;38013;48.810;8.818;2023-03-01T02:56:51;-0.40;60.00
50548;DHT22;38013;48.810;8.818;2023-03-01T02:59:21;-0.40;60.10
50548;DHT22;38013;48.810;8.818;2023-03-01T03:01:49;-0.40;60.10
50548;DHT22;38013;48.810;8.818;2023-03-01T03:04:17;-0.40;60.10
50548;DHT22;38013;48.810;8.818;2023-03-01T03:06:47;-0.40;60.30
50548;DHT22;38013;48.810;8.818;2023-03-01T03:09:17;-0.40;60.30
50548;DHT22;38013;48.810;8.818;2023-03-01T03:11:44;-0.30;60.40
50548;DHT22;38013;48.810;8.818;2023-03-01T03:14:12;-0.30;60.40
50548;DHT22;38013;48.810;8.818;2023-03-01T03:16:44;-0.30;60.40
50548;DHT22;38013;48.810;8.818;2023-03-01T03:19:17;-0.20;60.40
50548;DHT22;38013;48.810;8.818;2023-03-01T03:21:44;-0.20;60.40
50548;DHT22;38013;48.810;8.818;2023-03-01T03:24:11;-0.10;60.50
50548;DHT22;38013;48.810;8.818;2023-03-01T03:26:38;-0.10;60.50
50548;DHT22;38013;48.810;8.818;2023-03-01T03:29:05;0.00;60.60
50548;DHT22;38013;48.810;8.818;2023-03-01T03:31:32;0.00;60.70
50548;DHT22;38013;48.810;8.818;2023-03-01T03:33:58;0.10;60.70
50548;DHT22;38013;48.810;8.818;2023-03-01T03:36:25;0.10;60.70
50548;DHT22;38013;48.810;8.818;2023-03-01T03:38:52;0.20;60.70
50548;DHT22;38013;48.810;8.818;2023-03-01T03:41:19;0.20;60.60
50548;DHT22;38013;48.810;8.818;2023-03-01T03:43:46;0.30;61.30
50548;DHT22;38013;48.810;8.818;2023-03-01T03:46:12;0.30;60.60
50548;DHT22;38013;48.810;8.818;2023-03-01T03:48:40;0.30;60.60
50548;DHT22;38013;48.810;8.818;2023-03-01T03:51:15;0.40;60.60
50548;DHT22;38013;48.810;8.818;2023-03-01T03:53:43;0.40;60.70
50548;DHT22;38013;48.810;8.818;2023-03-01T03:56:10;0.50;60.70
50548;DHT22;38013;48.810;8.818;2023-03-01T03:58:37;0.50;60.60
50548;DHT22;38013;48.810;8.818;2023-03-01T04:01:04;0.60;60.60
50548;DHT22;38013;48.810;8.818;2023-03-01T04:03:31;0.60;60.60
50548;DHT22;38013;48.810;8.818;2023-03-01T04:05:59;0.60;60.50
50548;DHT22;38013;48.810;8.818;2023-03-01T04:08:27;0.70;60.50
50548;DHT22;38013;48.810;8.818;2023-03-01T04:10:57;0.70;60.50
50548;DHT22;38013;48.810;8.818;2023-03-01T04:13:26;0.70;60.40
50548;DHT22;38013;48.810;8.818;2023-03-01T04:15:53;0.80;60.40
50548;DHT22;38013;48.810;8.818;2023-03-01T04:18:22;0.80;60.30
50548;DHT22;38013;48.810;8.818;2023-03-01T04:20:49;0.80;60.30
50548;DHT22;38013;48.810;8.818;2023-03-01T04:23:19;0.90;60.40
50548;DHT22;38013;48.810;8.818;2023-03-01T04:25:50;0.90;60.40
50548;DHT22;38013;48.810;8.818;2023-03-01T04:28:22;0.90;60.20
50548;DHT22;38013;48.810;8.818;2023-03-01T04:31:12;0.90;60.30
50548;DHT22;38013;48.810;8.818;2023-03-01T04:33:42;1.00;60.40
50548;DHT22;38013;48.810;8.818;2023-03-01T04:36:21;1.00;60.40
50548;DHT22;38013;48.810;8.818;2023-03-01T04:38:50;1.00;60.30
50548;DHT22;38013;48.810;8.818;2023-03-01T04:41:17;1.10;60.40
50548;DHT22;38013;48.810;8.818;2023-03-01T04:43:44;1.10;60.30
50548;DHT22;38013;48.810;8.818;2023-03-01T04:46:13;1.10;60.30
50548;DHT22;38013;48.810;8.818;2023-03-01T04:48:42;1.20;60.40
50548;DHT22;38013;48.810;8.818;2023-03-01T04:51:11;1.20;60.40
50548;DHT22;38013;48.810;8.818;2023-03-01T04:53:41;1.20;60.30
50548;DHT22;38013;48.810;8.818;2023-03-01T04:56:08;1.30;60.40
50548;DHT22;38013;48.810;8.818;2023-03-01T04:58:35;1.30;60.40
50548;DHT22;38013;48.810;8.818;2023-03-01T05:01:07;1.40;60.30
50548;DHT22;38013;48.810;8.818;2023-03-01T05:03:42;1.40;60.30
50548;DHT22;38013;48.810;8.818;2023-03-01T05:06:13;1.40;60.30
50548;DHT22;38013;48.810;8.818;2023-03-01T05:08:41;1.50;60.40
50548;DHT22;38013;48.810;8.818;2023-03-01T05:11:08;1.50;60.30
50548;DHT22;38013;48.810;8.818;2023-03-01T05:13:35;1.50;60.30
50548;DHT22;38013;48.810;8.818;2023-03-01T05:16:03;1.50;60.20
50548;DHT22;38013;48.810;8.818;2023-03-01T05:18:32;1.60;60.40
50548;DHT22;38013;48.810;8.818;2023-03-01T05:21:03;1.60;60.30
50548;DHT22;38013;48.810;8.818;2023-03-01T05:23:32;1.60;60.30
50548;DHT22;38013;48.810;8.818;2023-03-01T05:26:00;1.70;60.30
50548;DHT22;38013;48.810;8.818;2023-03-01T05:28:27;1.70;60.20
50548;DHT22;38013;48.810;8.818;2023-03-01T05:30:54;1.70;60.20
50548;DHT22;38013;48.810;8.818;2023-03-01T05:33:21;1.70;60.20
50548;DHT22;38013;48.810;8.818;2023-03-01T05:35:49;1.80;60.20
50548;DHT22;38013;48.810;8.818;2023-03-01T05:38:17;1.80;60.20
50548;DHT22;38013;48.810;8.818;2023-03-01T05:40:44;1.80;60.10
50548;DHT22;38013;48.810;8.818;2023-03-01T05:43:13;1.80;60.10
50548;DHT22;38013;48.810;8.818;2023-03-01T05:45:40;1.90;60.10
50548;DHT22;38013;48.810;8.818;2023-03-01T05:48:08;1.90;60.10
50548;DHT22;38013;48.810;8.818;2023-03-01T05:50:45;1.90;60.10
50548;DHT22;38013;48.810;8.818;2023-03-01T05:53:14;1.90;60.10
50548;DHT22;38013;48.810;8.818;2023-03-01T05:55:42;1.90;60.00
50548;DHT22;38013;48.810;8.818;2023-03-01T05:58:11;1.90;60.00
50548;DHT22;38013;48.810;8.818;2023-03-01T06:00:40;1.90;59.90
50548;DHT22;38013;48.810;8.818;2023-03-01T06:03:09;1.90;59.90
50548;DHT22;38013;48.810;8.818;2023-03-01T06:05:37;1.90;60.00
50548;DHT22;38013;48.810;8.818;2023-03-01T06:08:04;1.90;59.90
50548;DHT22;38013;48.810;8.818;2023-03-01T06:10:30;2.00;59.90
50548;DHT22;38013;48.810;8.818;2023-03-01T06:12:57;1.90;59.50
50548;DHT22;38013;48.810;8.818;2023-03-01T06:15:24;1.90;59.70
50548;DHT22;38013;48.810;8.818;2023-03-01T06:17:51;1.90;59.80
50548;DHT22;38013;48.810;8.818;2023-03-01T06:20:24;1.90;59.90
50548;DHT22;38013;48.810;8.818;2023-03-01T06:22:52;1.90;60.00
50548;DHT22;38013;48.810;8.818;2023-03-01T06:25:20;1.90;60.00
50548;DHT22;38013;48.810;8.818;2023-03-01T06:27:47;2.00;60.10
50548;DHT22;38013;48.810;8.818;2023-03-01T06:30:16;2.00;59.90
50548;DHT22;38013;48.810;8.818;2023-03-01T06:32:43;1.90;60.20
50548;DHT22;38013;48.810;8.818;2023-03-01T06:35:11;1.90;60.00
50548;DHT22;38013;48.810;8.818;2023-03-01T06:37:39;1.90;59.80
50548;DHT22;38013;48.810;8.818;2023-03-01T06:40:06;1.90;59.70
50548;DHT22;38013;48.810;8.818;2023-03-01T06:42:34;1.90;59.70
50548;DHT22;38013;48.810;8.818;2023-03-01T06:45:02;1.80;59.50
50548;DHT22;38013;48.810;8.818;2023-03-01T06:47:29;1.80;59.60
50548;DHT22;38013;48.810;8.818;2023-03-01T06:49:56;1.80;59.80
50548;DHT22;38013;48.810;8.818;2023-03-01T06:52:22;1.80;60.20
50548;DHT22;38013;48.810;8.818;2023-03-01T06:54:49;1.70;60.10
50548;DHT22;38013;48.810;8.818;2023-03-01T06:57:16;1.80;60.20
50548;DHT22;38013;48.810;8.818;2023-03-01T06:59:43;1.70;60.10
50548;DHT22;38013;48.810;8.818;2023-03-01T07:02:10;1.70;60.20
50548;DHT22;38013;48.810;8.818;2023-03-01T07:04:38;1.70;60.20
50548;DHT22;38013;48.810;8.818;2023-03-01T07:07:05;1.70;60.50
50548;DHT22;38013;48.810;8.818;2023-03-01T07:09:32;1.70;60.70
50548;DHT22;38013;48.810;8.818;2023-03-01T07:11:59;1.80;61.10
50548;DHT22;38013;48.810;8.818;2023-03-01T07:14:26;1.70;61.10
50548;DHT22;38013;48.810;8.818;2023-03-01T07:16:53;1.70;60.80
50548;DHT22;38013;48.810;8.818;2023-03-01T07:19:20;1.70;60.90
50548;DHT22;38013;48.810;8.818;2023-03-01T07:21:47;1.60;61.30
50548;DHT22;38013;48.810;8.818;2023-03-01T07:24:14;1.60;61.00
50548;DHT22;38013;48.810;8.818;2023-03-01T07:26:41;1.60;60.60
50548;DHT22;38013;48.810;8.818;2023-03-01T07:29:09;1.60;60.60
50548;DHT22;38013;48.810;8.818;2023-03-01T07:31:36;1.50;60.50
50548;DHT22;38013;48.810;8.818;2023-03-01T07:34:03;1.50;60.60
50548;DHT22;38013;48.810;8.818;2023-03-01T07:36:30;1.50;60.50
50548;DHT22;38013;48.810;8.818;2023-03-01T07:38:57;1.60;60.60
50548;DHT22;38013;48.810;8.818;2023-03-01T07:41:24;1.60;60.70
50548;DHT22;38013;48.810;8.818;2023-03-01T07:43:51;1.70;60.80
50548;DHT22;38013;48.810;8.818;2023-03-01T07:46:17;1.70;60.70
50548;DHT22;38013;48.810;8.818;2023-03-01T07:48:45;1.70;60.60
50548;DHT22;38013;48.810;8.818;2023-03-01T07:51:12;1.70;60.20
50548;DHT22;38013;48.810;8.818;2023-03-01T07:53:39;1.80;60.20
50548;DHT22;38013;48.810;8.818;2023-03-01T07:58:34;1.80;60.40
50548;DHT22;38013;48.810;8.818;2023-03-01T08:01:02;1.80;60.40
50548;DHT22;38013;48.810;8.818;2023-03-01T08:03:33;1.90;60.30
50548;DHT22;38013;48.810;8.818;2023-03-01T08:06:01;1.90;60.30
50548;DHT22;38013;48.810;8.818;2023-03-01T08:08:28;2.00;60.40
50548;DHT22;38013;48.810;8.818;2023-03-01T08:10:59;2.00;60.40
50548;DHT22;38013;48.810;8.818;2023-03-01T08:13:26;2.00;60.50
50548;DHT22;38013;48.810;8.818;2023-03-01T08:15:53;2.00;60.50
50548;DHT22;38013;48.810;8.818;2023-03-01T08:18:20;2.10;60.40
50548;DHT22;38013;48.810;8.818;2023-03-01T08:20:48;2.10;60.40
50548;DHT22;38013;48.810;8.818;2023-03-01T08:23:14;2.20;60.00
50548;DHT22;38013;48.810;8.818;2023-03-01T08:25:41;2.20;60.20
50548;DHT22;38013;48.810;8.818;2023-03-01T08:28:08;2.20;60.20
50548;DHT22;38013;48.810;8.818;2023-03-01T08:30:35;2.20;60.20
50548;DHT22;38013;48.810;8.818;2023-03-01T08:33:02;2.30;60.30
50548;DHT22;38013;48.810;8.818;2023-03-01T08:35:28;2.40;60.40
50548;DHT22;38013;48.810;8.818;2023-03-01T08:37:55;2.40;60.30
50548;DHT22;38013;48.810;8.818;2023-03-01T08:40:22;2.40;60.50
50548;DHT22;38013;48.810;8.818;2023-03-01T08:42:49;2.50;60.40
50548;DHT22;38013;48.810;8.818;2023-03-01T08:45:15;2.50;60.20
50548;DHT22;38013;48.810;8.818;2023-03-01T08:47:44;2.60;60.50
50548;DHT22;38013;48.810;8.818;2023-03-01T08:50:11;2.60;60.40
50548;DHT22;38013;48.810;8.818;2023-03-01T08:52:38;2.70;60.40
50548;DHT22;38013;48.810;8.818;2023-03-01T08:55:05;2.70;60.30
50548;DHT22;38013;48.810;8.818;2023-03-01T08:57:32;2.80;60.30
50548;DHT22;38013;48.810;8.818;2023-03-01T08:59:59;2.90;60.20
50548;DHT22;38013;48.810;8.818;2023-03-01T09:02:25;2.90;60.30
50548;DHT22;38013;48.810;8.818;2023-03-01T09:04:52;3.00;60.20
50548;DHT22;38013;48.810;8.818;2023-03-01T09:07:19;3.00;60.20
50548;DHT22;38013;48.810;8.818;2023-03-01T09:09:46;3.10;60.30
50548;DHT22;38013;48.810;8.818;2023-03-01T09:12:13;3.20;60.30
50548;DHT22;38013;48.810;8.818;2023-03-01T09:14:39;3.30;60.30
50548;DHT22;38013;48.810;8.818;2023-03-01T09:17:07;3.30;60.30
50548;DHT22;38013;48.810;8.818;2023-03-01T09:19:34;3.40;60.40
50548;DHT22;38013;48.810;8.818;2023-03-01T09:22:02;3.50;60.40
50548;DHT22;38013;48.810;8.818;2023-03-01T09:24:29;3.50;60.30
50548;DHT22;38013;48.810;8.818;2023-03-01T09:26:56;3.60;60.40
50548;DHT22;38013;48.810;8.818;2023-03-01T09:29:23;3.80;60.60
50548;DHT22;38013;48.810;8.818;2023-03-01T09:31:50;3.80;60.50
50548;DHT22;38013;48.810;8.818;2023-03-01T09:34:17;4.00;60.30
50548;DHT22;38013;48.810;8.818;2023-03-01T09:36:49;4.00;60.30
50548;DHT22;38013;48.810;8.818;2023-03-01T09:39:17;4.20;60.30
50548;DHT22;38013;48.810;8.818;2023-03-01T09:47:22;4.50;60.30
50548;DHT22;38013;48.810;8.818;2023-03-01T09:52:45;4.70;60.20
50548;DHT22;38013;48.810;8.818;2023-03-01T09:55:15;4.80;60.10
50548;DHT22;38013;48.810;8.818;2023-03-01T09:57:55;5.00;60.10
50548;DHT22;38013;48.810;8.818;2023-03-01T10:00:42;5.10;60.10
50548;DHT22;38013;48.810;8.818;2023-03-01T10:06:25;5.40;59.90
50548;DHT22;38013;48.810;8.818;2023-03-01T10:09:02;5.50;59.70
50548;DHT22;38013;48.810;8.818;2023-03-01T10:11:35;5.60;59.70
50548;DHT22;38013;48.810;8.818;2023-03-01T10:16:58;5.80;59.50
50548;DHT22;38013;48.810;8.818;2023-03-01T10:19:31;6.00;59.50
50548;DHT22;38013;48.810;8.818;2023-03-01T10:22:03;6.00;59.50
50548;DHT22;38013;48.810;8.818;2023-03-01T10:24:34;6.20;59.40
50548;DHT22;38013;48.810;8.818;2023-03-01T10:27:06;6.30;59.30
50548;DHT22;38013;48.810;8.818;2023-03-01T10:32:37;6.40;58.80
50548;DHT22;38013;48.810;8.818;2023-03-01T10:37:56;6.60;58.60
50548;DHT22;38013;48.810;8.818;2023-03-01T10:40:29;6.60;58.40
50548;DHT22;38013;48.810;8.818;2023-03-01T10:42:59;6.70;58.40
50548;DHT22;38013;48.810;8.818;2023-03-01T10:45:37;6.70;58.20
50548;DHT22;38013;48.810;8.818;2023-03-01T10:48:19;6.80;58.40
50548;DHT22;38013;48.810;8.818;2023-03-01T10:50:51;6.90;58.40
50548;DHT22;38013;48.810;8.818;2023-03-01T10:56:12;7.10;58.20
50548;DHT22;38013;48.810;8.818;2023-03-01T10:58:41;7.20;58.20
50548;DHT22;38013;48.810;8.818;2023-03-01T11:01:27;7.30;58.20
50548;DHT22;38013;48.810;8.818;2023-03-01T11:04:08;7.40;58.10
50548;DHT22;38013;48.810;8.818;2023-03-01T11:06:38;7.50;57.90
50548;DHT22;38013;48.810;8.818;2023-03-01T11:11:51;7.80;57.90
50548;DHT22;38013;48.810;8.818;2023-03-01T11:14:23;7.90;57.80
50548;DHT22;38013;48.810;8.818;2023-03-01T11:17:01;8.10;57.70
50548;DHT22;38013;48.810;8.818;2023-03-01T11:19:30;8.10;57.70
50548;DHT22;38013;48.810;8.818;2023-03-01T11:24:43;8.30;57.20
50548;DHT22;38013;48.810;8.818;2023-03-01T11:29:44;8.50;57.30
50548;DHT22;38013;48.810;8.818;2023-03-01T11:32:16;8.60;57.00
50548;DHT22;38013;48.810;8.818;2023-03-01T11:34:44;8.60;57.10
50548;DHT22;38013;48.810;8.818;2023-03-01T11:37:18;8.70;56.90
50548;DHT22;38013;48.810;8.818;2023-03-01T11:39:53;8.80;57.20
50548;DHT22;38013;48.810;8.818;2023-03-01T11:45:08;9.00;57.00
50548;DHT22;38013;48.810;8.818;2023-03-01T12:01:51;9.80;56.80
50548;DHT22;38013;48.810;8.818;2023-03-01T12:07:21;10.10;56.40
50548;DHT22;38013;48.810;8.818;2023-03-01T12:18:21;10.60;55.30
50548;DHT22;38013;48.810;8.818;2023-03-01T12:24:05;10.80;55.30
50548;DHT22;38013;48.810;8.818;2023-03-01T12:29:25;11.00;55.70
50548;DHT22;38013;48.810;8.818;2023-03-01T12:37:54;11.50;54.60
50548;DHT22;38013;48.810;8.818;2023-03-01T12:49:10;12.40;55.60
50548;DHT22;38013;48.810;8.818;2023-03-01T12:51:42;12.70;55.30
50548;DHT22;38013;48.810;8.818;2023-03-01T12:54:22;13.00;55.50
50548;DHT22;38013;48.810;8.818;2023-03-01T12:56:53;13.30;55.00
50548;DHT22;38013;48.810;8.818;2023-03-01T13:02:38;13.70;54.30
50548;DHT22;38013;48.810;8.818;2023-03-01T13:07:51;14.00;53.10
50548;DHT22;38013;48.810;8.818;2023-03-01T13:10:39;14.20;53.30
50548;DHT22;38013;48.810;8.818;2023-03-01T13:13:20;14.40;54.20
50548;DHT22;38013;48.810;8.818;2023-03-01T13:15:47;14.70;53.50
50548;DHT22;38013;48.810;8.818;2023-03-01T13:23:11;15.40;52.90
50548;DHT22;38013;48.810;8.818;2023-03-01T13:26:22;15.60;50.80
50548;DHT22;38013;48.810;8.818;2023-03-01T13:31:03;16.00;51.80
50548;DHT22;38013;48.810;8.818;2023-03-01T13:44:30;17.10;52.00
50548;DHT22;38013;48.810;8.818;2023-03-01T13:52:30;18.00;52.30
50548;DHT22;38013;48.810;8.818;2023-03-01T13:55:03;18.30;51.20
50548;DHT22;38013;48.810;8.818;2023-03-01T13:57:59;18.50;51.80
50548;DHT22;38013;48.810;8.818;2023-03-01T14:00:33;18.70;51.40
50548;DHT22;38013;48.810;8.818;2023-03-01T14:03:01;18.90;51.20
50548;DHT22;38013;48.810;8.818;2023-03-01T14:05:34;19.00;50.40
50548;DHT22;38013;48.810;8.818;2023-03-01T14:08:03;19.20;49.50
50548;DHT22;38013;48.810;8.818;2023-03-01T14:10:53;19.30;49.80
50548;DHT22;38013;48.810;8.818;2023-03-01T14:16:24;19.50;49.20
50548;DHT22;38013;48.810;8.818;2023-03-01T14:19:17;19.70;49.10
50548;DHT22;38013;48.810;8.818;2023-03-01T14:24:44;19.80;48.80
50548;DHT22;38013;48.810;8.818;2023-03-01T14:27:13;19.80;48.70
50548;DHT22;38013;48.810;8.818;2023-03-01T14:29:40;19.70;48.10
50548;DHT22;38013;48.810;8.818;2023-03-01T14:32:11;19.50;47.90
50548;DHT22;38013;48.810;8.818;2023-03-01T14:34:42;19.40;47.60
50548;DHT22;38013;48.810;8.818;2023-03-01T14:37:21;19.20;47.20
50548;DHT22;38013;48.810;8.818;2023-03-01T14:39:50;18.80;47.80
50548;DHT22;38013;48.810;8.818;2023-03-01T14:42:18;18.40;46.10
50548;DHT22;38013;48.810;8.818;2023-03-01T14:44:46;17.90;46.50
50548;DHT22;38013;48.810;8.818;2023-03-01T14:47:15;17.50;46.60
50548;DHT22;38013;48.810;8.818;2023-03-01T14:49:47;17.00;45.90
50548;DHT22;38013;48.810;8.818;2023-03-01T14:52:18;16.40;46.50
50548;DHT22;38013;48.810;8.818;2023-03-01T14:54:53;15.90;46.20
50548;DHT22;38013;48.810;8.818;2023-03-01T14:57:25;15.40;46.00
50548;DHT22;38013;48.810;8.818;2023-03-01T14:59:54;14.90;46.70
50548;DHT22;38013;48.810;8.818;2023-03-01T15:02:22;14.60;46.60
50548;DHT22;38013;48.810;8.818;2023-03-01T15:05:00;14.30;47.90
50548;DHT22;38013;48.810;8.818;2023-03-01T15:07:30;14.20;49.00
50548;DHT22;38013;48.810;8.818;2023-03-01T15:09:59;14.10;49.10
50548;DHT22;38013;48.810;8.818;2023-03-01T15:15:19;14.00;48.90
50548;DHT22;38013;48.810;8.818;2023-03-01T15:17:55;13.90;49.40
50548;DHT22;38013;48.810;8.818;2023-03-01T15:20:24;14.00;49.40
50548;DHT22;38013;48.810;8.818;2023-03-01T15:22:52;14.20;50.40
50548;DHT22;38013;48.810;8.818;2023-03-01T15:25:21;14.30;50.90
50548;DHT22;38013;48.810;8.818;2023-03-01T15:27:50;14.50;50.90
50548;DHT22;38013;48.810;8.818;2023-03-01T15:30:22;14.80;51.30
50548;DHT22;38013;48.810;8.818;2023-03-01T15:35:52;15.20;51.10
50548;DHT22;38013;48.810;8.818;2023-03-01T15:38:29;15.40;51.20
50548;DHT22;38013;48.810;8.818;2023-03-01T15:41:23;15.60;50.60
50548;DHT22;38013;48.810;8.818;2023-03-01T15:43:50;15.80;50.90
50548;DHT22;38013;48.810;8.818;2023-03-01T15:46:22;16.00;50.40
50548;DHT22;38013;48.810;8.818;2023-03-01T15:48:53;16.10;49.70
50548;DHT22;38013;48.810;8.818;2023-03-01T15:51:27;16.20;50.00
50548;DHT22;38013;48.810;8.818;2023-03-01T15:53:57;16.30;50.50
50548;DHT22;38013;48.810;8.818;2023-03-01T15:56:25;16.40;49.40
50548;DHT22;38013;48.810;8.818;2023-03-01T15:58:52;16.50;49.10
50548;DHT22;38013;48.810;8.818;2023-03-01T16:01:19;16.50;48.80
50548;DHT22;38013;48.810;8.818;2023-03-01T16:03:46;16.60;49.20
50548;DHT22;38013;48.810;8.818;2023-03-01T16:06:12;16.70;49.80
50548;DHT22;38013;48.810;8.818;2023-03-01T16:08:39;16.70;49.50
50548;DHT22;38013;48.810;8.818;2023-03-01T16:11:10;16.80;49.10
50548;DHT22;38013;48.810;8.818;2023-03-01T16:13:41;16.80;48.30
50548;DHT22;38013;48.810;8.818;2023-03-01T16:16:09;16.70;48.60
50548;DHT22;38013;48.810;8.818;2023-03-01T16:18:38;16.70;47.60
50548;DHT22;38013;48.810;8.818;2023-03-01T16:21:05;16.70;48.30
50548;DHT22;38013;48.810;8.818;2023-03-01T16:23:32;16.60;47.80
50548;DHT22;38013;48.810;8.818;2023-03-01T16:25:59;16.50;48.50
50548;DHT22;38013;48.810;8.818;2023-03-01T16:28:26;16.40;47.60
50548;DHT22;38013;48.810;8.818;2023-03-01T16:30:55;16.20;47.20
50548;DHT22;38013;48.810;8.818;2023-03-01T16:33:22;16.00;47.10
50548;DHT22;38013;48.810;8.818;2023-03-01T16:36:00;15.90;47.00
50548;DHT22;38013;48.810;8.818;2023-03-01T16:38:28;15.70;47.20
50548;DHT22;38013;48.810;8.818;2023-03-01T16:40:55;15.40;46.40
50548;DHT22;38013;48.810;8.818;2023-03-01T16:43:22;15.10;46.80
50548;DHT22;38013;48.810;8.818;2023-03-01T16:45:48;14.90;46.50
50548;DHT22;38013;48.810;8.818;2023-03-01T16:48:15;14.60;46.40
50548;DHT22;38013;48.810;8.818;2023-03-01T16:50:42;14.30;46.00
50548;DHT22;38013;48.810;8.818;2023-03-01T16:53:09;14.00;46.10
50548;DHT22;38013;48.810;8.818;2023-03-01T16:55:36;13.70;46.10
50548;DHT22;38013;48.810;8.818;2023-03-01T16:58:04;13.40;46.20
50548;DHT22;38013;48.810;8.818;2023-03-01T17:00:32;13.10;46.10
50548;DHT22;38013;48.810;8.818;2023-03-01T17:02:58;12.70;46.10
50548;DHT22;38013;48.810;8.818;2023-03-01T17:05:25;12.40;46.20
50548;DHT22;38013;48.810;8.818;2023-03-01T17:07:52;12.10;46.20
50548;DHT22;38013;48.810;8.818;2023-03-01T17:10:21;11.80;46.40
50548;DHT22;38013;48.810;8.818;2023-03-01T17:12:48;11.50;46.40
50548;DHT22;38013;48.810;8.818;2023-03-01T17:15:16;11.10;46.50
50548;DHT22;38013;48.810;8.818;2023-03-01T17:17:43;10.80;46.60
50548;DHT22;38013;48.810;8.818;2023-03-01T17:20:10;10.60;46.80
50548;DHT22;38013;48.810;8.818;2023-03-01T17:22:37;10.30;47.00
50548;DHT22;38013;48.810;8.818;2023-03-01T17:25:03;10.00;47.10
50548;DHT22;38013;48.810;8.818;2023-03-01T17:27:30;9.80;47.30
50548;DHT22;38013;48.810;8.818;2023-03-01T17:30:01;9.60;47.50
50548;DHT22;38013;48.810;8.818;2023-03-01T17:32:27;9.30;47.50
50548;DHT22;38013;48.810;8.818;2023-03-01T17:34:55;9.10;48.40
50548;DHT22;38013;48.810;8.818;2023-03-01T17:37:22;8.90;47.90
50548;DHT22;38013;48.810;8.818;2023-03-01T17:39:48;8.80;48.10
50548;DHT22;38013;48.810;8.818;2023-03-01T17:42:15;8.60;48.20
50548;DHT22;38013;48.810;8.818;2023-03-01T17:44:42;8.40;48.40
50548;DHT22;38013;48.810;8.818;2023-03-01T17:47:09;8.20;48.50
50548;DHT22;38013;48.810;8.818;2023-03-01T17:49:36;8.10;48.70
50548;DHT22;38013;48.810;8.818;2023-03-01T17:52:03;8.00;48.80
50548;DHT22;38013;48.810;8.818;2023-03-01T17:54:30;7.80;48.90
50548;DHT22;38013;48.810;8.818;2023-03-01T17:56:58;7.60;49.00
50548;DHT22;38013;48.810;8.818;2023-03-01T17:59:25;7.50;49.20
50548;DHT22;38013;48.810;8.818;2023-03-01T18:01:56;7.30;49.20
50548;DHT22;38013;48.810;8.818;2023-03-01T18:04:23;7.20;49.40
50548;DHT22;38013;48.810;8.818;2023-03-01T18:06:50;7.20;49.60
50548;DHT22;38013;48.810;8.818;2023-03-01T18:09:17;7.00;49.60